createdAt,value
2019-02-05T00:03:16.456Z,32.23
2019-02-05T00:08:18.065Z,35.75
2019-02-05T00:13:19.405Z,34.60
2019-02-05T00:18:21.993Z,34.50
2019-02-05T00:23:23.172Z,38.02
2019-02-05T00:28:24.644Z,34.92
2019-02-05T00:33:26.012Z,34.95
2019-02-05T00:38:28.324Z,35.60
2019-02-05T00:43:30.231Z,34.60
2019-02-05T00:48:31.716Z,38.90
2019-02-05T00:53:32.933Z,40.98
2019-02-05T00:58:34.182Z,33.00
2019-02-05T01:03:35.443Z,33.75
2019-02-05T01:08:36.729Z,34.53
2019-02-05T01:13:37.914Z,37.05
2019-02-05T01:18:39.074Z,41.25
2019-02-05T01:23:40.384Z,40.00
2019-02-05T01:28:41.707Z,35.40
2019-02-05T01:33:43.190Z,36.75
2019-02-05T01:38:44.373Z,37.90
2019-02-05T01:43:49.175Z,33.92
2019-02-05T01:48:50.288Z,37.70
2019-02-05T01:53:51.569Z,37.67
2019-02-05T01:58:52.877Z,42.78
2019-02-05T02:03:54.241Z,42.27
2019-02-05T02:08:55.398Z,40.08
2019-02-05T02:13:56.740Z,43.13
2019-02-05T02:18:57.972Z,44.33
2019-02-05T02:23:59.134Z,39.73
2019-02-05T02:29:00.431Z,43.38
2019-02-05T02:34:01.622Z,42.93
2019-02-05T02:39:04.605Z,39.08
2019-02-05T02:44:06.289Z,41.13
2019-02-05T02:49:07.440Z,46.85
2019-02-05T02:54:09.101Z,41.80
2019-02-05T02:59:10.363Z,36.10
2019-02-05T03:04:11.892Z,43.33
2019-02-05T03:09:13.444Z,46.00
2019-02-05T03:14:14.875Z,41.68
2019-02-05T03:19:16.051Z,42.48
2019-02-05T03:24:17.620Z,47.67
2019-02-05T03:29:18.771Z,45.30
2019-02-05T03:34:20.136Z,48.02
2019-02-05T03:39:21.713Z,45.95
2019-02-05T03:44:23.090Z,41.20
2019-02-05T03:49:24.452Z,37.17
2019-02-05T03:54:32.448Z,49.42
2019-02-05T03:59:49.433Z,45.95
2019-02-05T04:05:20.569Z,43.28
2019-02-05T04:10:59.503Z,37.48
2019-02-05T04:16:16.796Z,47.08
2019-02-05T04:21:31.063Z,51.15
2019-02-05T04:26:42.119Z,44.95
2019-02-05T04:32:07.903Z,45.67
2019-02-05T04:37:19.188Z,46.30
2019-02-05T04:42:39.713Z,45.33
2019-02-05T04:48:11.825Z,44.70
2019-02-05T04:53:22.792Z,41.88
2019-02-05T04:58:30.711Z,45.95
2019-02-05T05:03:52.790Z,44.48
2019-02-05T05:09:13.172Z,43.23
2019-02-05T05:14:14.363Z,46.37
2019-02-05T05:19:15.650Z,49.45
2019-02-05T05:24:17.051Z,43.87
2019-02-05T05:29:18.585Z,50.00
2019-02-05T05:34:19.876Z,50.28
2019-02-05T05:39:21.013Z,50.60
2019-02-05T05:44:22.337Z,54.18
2019-02-05T05:49:24.222Z,53.92
2019-02-05T05:54:25.365Z,52.13
2019-02-05T05:59:26.534Z,46.92
2019-02-05T06:04:27.801Z,47.23
2019-02-05T06:09:29.446Z,52.08
2019-02-05T06:14:31.109Z,47.48
2019-02-05T06:19:32.416Z,51.40
2019-02-05T06:24:35.014Z,49.42
2019-02-05T06:29:36.197Z,57.13
2019-02-05T06:34:38.122Z,49.83
2019-02-05T06:39:39.544Z,49.58
2019-02-05T06:44:40.823Z,55.88
2019-02-05T06:49:42.618Z,52.27
2019-02-05T06:54:43.881Z,49.55
2019-02-05T06:59:45.081Z,49.03
2019-02-05T07:04:46.336Z,48.17
2019-02-05T07:09:47.735Z,46.75
2019-02-05T07:14:49.026Z,52.38
2019-02-05T07:19:50.707Z,52.98
2019-02-05T07:24:52.584Z,57.25
2019-02-05T07:29:53.908Z,65.70
2019-02-05T07:34:55.677Z,58.05
2019-02-05T07:39:57.233Z,57.10
2019-02-05T07:44:58.360Z,65.28
2019-02-05T07:49:59.566Z,59.40
2019-02-05T07:55:01.125Z,60.20
2019-02-05T08:00:06.142Z,63.98
2019-02-05T08:05:11.413Z,60.55
2019-02-05T08:10:15.652Z,60.33
2019-02-05T08:15:22.968Z,55.08
2019-02-05T08:20:24.529Z,55.65
2019-02-05T08:25:25.909Z,50.03
2019-02-05T08:30:36.213Z,47.90
2019-02-05T08:35:37.549Z,50.48
2019-02-05T08:40:38.941Z,54.90
2019-02-05T08:45:40.804Z,54.55
2019-02-05T08:50:42.109Z,45.20
2019-02-05T08:55:43.596Z,45.88
2019-02-05T09:00:46.048Z,47.27
2019-02-05T09:05:47.490Z,39.63
2019-02-05T09:10:48.888Z,39.08
2019-02-05T09:15:50.454Z,32.50
2019-02-05T09:20:51.707Z,30.48
2019-02-05T09:25:53.036Z,30.37
2019-02-05T09:30:54.271Z,30.23
2019-02-05T09:35:55.447Z,28.25
2019-02-05T09:40:56.627Z,30.75
2019-02-05T09:45:57.886Z,30.52
2019-02-05T09:50:59.452Z,29.65
2019-02-05T09:56:00.713Z,27.15
2019-02-05T10:01:02.190Z,31.87
2019-02-05T10:06:03.610Z,28.70
2019-02-05T10:11:04.854Z,26.77
2019-02-05T10:16:06.323Z,29.60
2019-02-05T10:21:08.049Z,28.15
2019-02-05T10:26:09.309Z,26.90
2019-02-05T10:31:10.609Z,30.90
2019-02-05T10:36:11.996Z,28.50
2019-02-05T10:41:13.162Z,27.45
2019-02-05T10:46:14.550Z,28.00
2019-02-05T10:51:15.901Z,30.10
2019-02-05T10:56:17.052Z,28.85
2019-02-05T11:01:18.323Z,29.65
2019-02-05T11:06:20.240Z,30.08
2019-02-05T11:11:21.926Z,25.60
2019-02-05T11:16:23.746Z,28.73
2019-02-05T11:21:25.131Z,27.80
2019-02-05T11:26:27.370Z,24.75
2019-02-05T11:31:29.078Z,30.55
2019-02-05T11:36:30.521Z,27.10
2019-02-05T11:41:32.427Z,24.23
2019-02-05T11:46:33.847Z,24.82
2019-02-05T11:51:35.327Z,25.17
2019-02-05T11:56:36.919Z,26.02
2019-02-05T12:01:39.323Z,24.32
2019-02-05T12:06:40.721Z,22.60
2019-02-05T12:11:42.652Z,25.30
2019-02-05T12:16:44.989Z,26.07
2019-02-05T12:21:50.279Z,21.52
2019-02-05T12:26:51.709Z,21.23
2019-02-05T12:31:53.035Z,22.07
2019-02-05T12:36:54.447Z,22.13
2019-02-05T12:41:55.559Z,17.80
2019-02-05T12:46:56.893Z,25.55
2019-02-05T12:51:58.389Z,21.73
2019-02-05T12:56:59.781Z,26.37
2019-02-05T13:02:01.103Z,19.25
2019-02-05T13:07:02.671Z,15.48
2019-02-05T13:12:04.528Z,16.85
2019-02-05T13:17:05.940Z,22.27
2019-02-05T13:22:07.371Z,22.15
2019-02-05T13:27:08.773Z,20.85
2019-02-05T13:32:10.050Z,22.95
2019-02-05T13:37:11.325Z,19.85
2019-02-05T13:42:12.578Z,20.05
2019-02-05T13:47:18.227Z,19.35
2019-02-05T13:52:19.360Z,22.13
2019-02-05T13:57:20.873Z,16.75
2019-02-05T14:02:22.226Z,17.17
2019-02-05T14:07:23.700Z,13.90
2019-02-05T14:12:24.980Z,14.73
2019-02-05T14:17:26.343Z,13.00
2019-02-05T14:22:27.554Z,16.52
2019-02-05T14:27:28.871Z,16.27
2019-02-05T14:32:30.863Z,15.00
2019-02-05T14:37:32.168Z,17.65
2019-02-05T14:42:33.646Z,17.52
2019-02-05T14:47:35.028Z,18.23
2019-02-05T14:52:36.400Z,14.65
2019-02-05T14:57:38.101Z,14.90
2019-02-05T15:02:39.280Z,13.18
2019-02-05T15:07:40.593Z,16.82
2019-02-05T15:12:43.048Z,16.10
2019-02-05T15:17:44.447Z,14.47
2019-02-05T15:22:45.907Z,17.65
2019-02-05T15:27:47.087Z,16.32
2019-02-05T15:32:50.292Z,13.08
2019-02-05T15:37:51.439Z,11.33
2019-02-05T15:42:52.704Z,12.63
2019-02-05T15:47:56.307Z,12.45
2019-02-05T15:52:57.630Z,12.07
2019-02-05T15:57:58.881Z,14.55
2019-02-05T16:03:00.130Z,13.62
2019-02-05T16:08:01.693Z,16.85
2019-02-05T16:13:03.416Z,20.60
2019-02-05T16:18:04.814Z,15.90
2019-02-05T16:23:06.517Z,18.67
2019-02-05T16:28:08.426Z,19.55
2019-02-05T16:33:10.998Z,22.80
2019-02-05T16:38:12.489Z,60.15
2019-02-05T16:43:13.835Z,27.50
2019-02-05T16:48:15.363Z,55.00
2019-02-05T16:53:16.582Z,67.97
2019-02-05T16:58:17.822Z,25.27
2019-02-05T17:03:19.152Z,22.60
2019-02-05T17:08:21.512Z,17.40
2019-02-05T17:13:22.899Z,15.78
2019-02-05T17:18:24.243Z,17.00
2019-02-05T17:23:25.541Z,20.40
2019-02-05T17:28:26.751Z,23.22
2019-02-05T17:33:28.232Z,20.75
2019-02-05T17:38:29.613Z,21.00
2019-02-05T17:43:30.942Z,21.35
2019-02-05T17:48:32.465Z,18.98
2019-02-05T17:53:33.998Z,22.70
2019-02-05T17:58:35.453Z,18.87
2019-02-05T18:03:37.065Z,18.12
2019-02-05T18:08:38.505Z,24.12
2019-02-05T18:13:39.746Z,21.85
2019-02-05T18:18:41.320Z,22.45
2019-02-05T18:23:42.838Z,24.65
2019-02-05T18:28:44.371Z,23.65
2019-02-05T18:33:45.780Z,21.48
2019-02-05T18:38:46.991Z,25.72
2019-02-05T18:43:48.594Z,26.97
2019-02-05T18:48:50.285Z,30.57
2019-02-05T18:53:51.957Z,32.33
2019-02-05T18:58:53.305Z,28.98
2019-02-05T19:03:55.869Z,24.52
2019-02-05T19:08:57.804Z,24.47
2019-02-05T19:13:59.224Z,26.70
2019-02-05T19:19:01.111Z,32.15
2019-02-05T19:24:05.344Z,29.45
2019-02-05T19:29:18.219Z,34.33
2019-02-05T19:34:10.410Z,38.90
2019-02-05T19:39:11.862Z,30.85
2019-02-05T19:44:13.404Z,33.45
2019-02-05T19:49:22.826Z,30.08
2019-02-05T19:54:24.264Z,31.20
2019-02-05T19:59:26.970Z,31.27
2019-02-05T20:04:28.358Z,30.68
2019-02-05T20:09:29.891Z,31.40
2019-02-05T20:14:31.719Z,33.42
2019-02-05T20:19:33.685Z,33.58
2019-02-05T20:24:36.248Z,30.55
2019-02-05T20:29:38.677Z,33.13
2019-02-05T20:34:40.481Z,36.17
2019-02-05T20:39:42.961Z,45.85
2019-02-05T20:44:44.439Z,38.10
2019-02-05T20:49:46.115Z,39.78
2019-02-05T20:54:47.541Z,39.38
2019-02-05T20:59:49.010Z,44.03
2019-02-05T21:04:50.460Z,43.98
2019-02-05T21:09:51.736Z,42.88
2019-02-05T21:14:53.246Z,42.13
2019-02-05T21:19:57.743Z,43.68
2019-02-05T21:24:59.235Z,38.53
2019-02-05T21:30:00.863Z,44.23
2019-02-05T21:35:03.067Z,41.58
2019-02-05T21:40:16.874Z,49.30
2019-02-05T21:45:23.309Z,46.73
2019-02-05T21:50:25.905Z,44.67
2019-02-05T21:55:28.090Z,50.00
2019-02-05T22:00:34.762Z,42.13
2019-02-05T22:05:36.412Z,43.40
2019-02-05T22:10:38.306Z,46.13
2019-02-05T22:15:39.579Z,43.25
2019-02-05T22:20:41.564Z,46.90
2019-02-05T22:25:43.460Z,43.92
2019-02-05T22:30:44.723Z,47.75
2019-02-05T22:35:46.284Z,51.65
2019-02-05T22:40:47.621Z,51.55
2019-02-05T22:45:49.023Z,52.53
2019-02-05T22:50:50.308Z,61.18
2019-02-05T22:55:51.624Z,55.70
2019-02-05T23:00:57.903Z,56.28
2019-02-05T23:06:24.467Z,48.73
2019-02-05T23:11:58.261Z,58.33
2019-02-05T23:17:01.472Z,58.00
2019-02-05T23:22:02.873Z,64.58
2019-02-05T23:27:04.140Z,63.15
2019-02-05T23:32:06.260Z,58.15
2019-02-05T23:37:07.797Z,63.85
2019-02-05T23:42:09.176Z,67.75
2019-02-05T23:47:10.785Z,68.80
2019-02-05T23:52:12.147Z,65.05
2019-02-05T23:57:13.412Z,63.63
